Data for 08/20/2006

Time Sea-Level Adjusted Pressure Absolute Pressure Temperature Relative Humidity Dew Point   
(mb) (inHg) (mb) (inHg) (C) (F) (%) (C) (F)
00:05 1020 30.12 849 25.07 16.6 61.9 43 4 39.2
00:10 1020 30.12 849 25.07 15.6 60.2 44 3.6 38.5
00:15 1020 30.12 849 25.07 15.1 59.1 49 4.7 40.4
00:20 1020 30.12 849 25.07 14.9 58.8 46 3.6 38.5
00:25 1020 30.12 849 25.07 14.6 58.4 48 4 39.2
00:30 1020 30.12 849 25.07 14.8 58.7 46 3.3 38
00:35 1020 30.12 849 25.07 14.5 58.2 46 3.3 37.9
00:40 1020 30.12 849 25.07 14.7 58.4 47 3.4 38.2
00:45 1020 30.12 849 25.07 14.9 58.7 43 2.5 36.5
00:50 1020 30.12 849 25.07 15.3 59.5 41 2.2 36
00:55 1020 30.12 849 25.07 15.3 59.6 43 3 37.4
01:00 1020 30.12 849 25.07 14.9 58.8 43 2.6 36.7
01:05 1020 30.12 849 25.07 14.9 58.8 39 1.3 34.3
01:10 1020 30.12 849 25.07 15.5 60 37 1.1 34
01:15 1020 30.12 849 25.07 15.3 59.5 42 2.5 36.5
01:20 1020 30.12 849 25.07 15.3 59.6 43 2.9 37.1
01:25 1020 30.12 849 25.07 15.5 59.8 40 2.1 35.8
01:30 1020 30.12 849 25.07 15.2 59.4 41 2.2 35.9
01:35 1020 30.12 849 25.07 15.4 59.7 40 1.8 35.3
01:40 1020 30.12 849 25.07 15.4 59.6 40 2 35.7
01:45 1020 30.12 849 25.07 15.1 59.1 41 1.9 35.4
01:50 1020 30.12 849 25.07 15.1 59.2 39 1.3 34.4
01:55 1020 30.12 849 25.07 15.4 59.7 39 1.4 34.6
02:00 1020 30.12 849 25.07 15.5 59.8 41 2.5 36.6
02:05 1020 30.12 849 25.07 15.2 59.3 41 2 35.6
02:10 1020 30.12 849 25.07 15.1 59.3 37 0.8 33.4
02:15 1020 30.12 849 25.07 15.5 60 36 0.5 32.9
02:20 1020 30.12 849 25.07 15.7 60.2 39 1.8 35.2
02:25 1020 30.12 849 25.07 15.6 60 38 1.2 34.2
02:30 1020 30.12 849 25.07 15.5 59.9 38 1.3 34.3
02:35 1020 30.12 849 25.07 15.1 59.2 40 1.8 35.3
02:40 1020 30.12 849 25.07 14.8 58.7 37 0.4 32.7
02:45 1020 30.12 849 25.07 15.4 59.7 38 1.1 34
02:50 1020 30.12 849 25.07 15.3 59.6 39 1.7 35
02:55 1020 30.12 849 25.07 15.1 59.2 37 0.5 33
03:00 1020 30.12 849 25.07 15.2 59.4 37 0.6 33
03:05 1020 30.12 849 25.07 15.2 59.4 41 2.1 35.7
03:10 1020 30.12 849 25.07 15.1 59.2 38 0.9 33.7
03:15 1020 30.12 849 25.07 15.1 59.2 36 0.1 32.1
03:20 1020 30.12 849 25.07 15.5 60 42 2.9 37.3
03:25 1020 30.12 850 25.1 15.3 59.5 40 1.7 35.1
03:30 1020 30.12 850 25.1 14.7 58.5 41 1.5 34.8
03:35 1020 30.12 850 25.1 15.3 59.5 35 0.2 32.4
03:40 1020 30.12 850 25.1 15.4 59.6 37 0.9 33.6
03:45 1020 30.12 850 25.1 15.3 59.5 34 -0.5 31.1
03:50 1020 30.12 850 25.1 15.7 60.2 33 -0.3 31.4
03:55 1020 30.12 850 25.1 15.7 60.3 34 0.2 32.3
04:00 1021 30.15 850 25.1 15.3 59.5 35 0.1 32.2
04:05 1021 30.15 850 25.1 14.9 58.9 37 0.6 33
04:10 1021 30.15 850 25.1 14.5 58 38 0.6 33
04:15 1021 30.15 850 25.1 14.4 57.8 40 1 33.8
04:20 1021 30.15 850 25.1 14.4 58 38 0.2 32.4
04:25 1021 30.15 850 25.1 14.6 58.3 38 0.6 33.1
04:30 1021 30.15 850 25.1 14.7 58.4 45 2.9 37.2
04:35 1021 30.15 850 25.1 14.5 58 40 1.2 34.2
04:40 1021 30.15 850 25.1 14.3 57.8 39 0.7 33.3
04:45 1021 30.15 850 25.1 14.8 58.6 38 0.7 33.2
04:50 1021 30.15 850 25.1 14.5 58.1 37 0.2 32.4
04:55 1021 30.15 850 25.1 14.6 58.4 38 0.7 33.2
05:00 1021 30.15 850 25.1 14.6 58.2 45 2.9 37.1
05:05 1021 30.15 850 25.1 14.4 57.9 41 1.4 34.6
05:10 1021 30.15 850 25.1 14 57.3 42 1.6 34.8
05:15 1021 30.15 850 25.1 13.5 56.3 45 1.8 35.2
05:20 1021 30.15 850 25.1 12.9 55.2 47 1.8 35.2
05:25 1021 30.15 850 25.1 13.2 55.8 45 1.6 34.9
05:30 1021 30.15 850 25.1 13.3 55.9 44 1.3 34.4
05:35 1021 30.15 850 25.1 13.4 56.1 43 1.2 34.2
05:40 1021 30.15 850 25.1 13.7 56.7 41 0.7 33.3
05:45 1021 30.15 850 25.1 13.7 56.6 42 1 33.7
05:50 1021 30.15 850 25.1 13.4 56.1 42 0.9 33.6
05:55 1021 30.15 850 25.1 13.5 56.3 41 0.7 33.3
06:00 1021 30.15 850 25.1 13.4 56.2 42 0.8 33.4
06:05 1021 30.15 850 25.1 12.9 55.1 45 1.2 34.1
06:10 1021 30.15 850 25.1 12.6 54.7 44 0.8 33.4
06:15 1021 30.15 850 25.1 12.8 55.1 44 0.8 33.5
06:20 1021 30.15 850 25.1 12.9 55.3 43 0.9 33.5
06:25 1021 30.15 850 25.1 13 55.5 42 0.4 32.8
06:30 1021 30.15 851 25.13 13.2 55.7 42 0.6 33.1
06:35 1021 30.15 851 25.13 13.6 56.5 39 0.2 32.3
06:40 1021 30.15 851 25.13 13.8 56.8 40 0.5 32.9
06:45 1021 30.15 851 25.13 13.7 56.6 40 0.4 32.7
06:50 1021 30.15 851 25.13 13.7 56.7 39 0.2 32.3
06:55 1021 30.15 851 25.13 13.8 56.9 40 0.5 32.9
07:00 1021 30.15 851 25.13 13.6 56.5 42 0.8 33.5
07:05 1022 30.18 851 25.13 13.6 56.4 40 0.3 32.6
07:10 1022 30.18 851 25.13 13.8 56.8 40 0.5 32.9
07:15 1022 30.18 851 25.13 13.7 56.6 41 0.8 33.4
07:20 1022 30.18 851 25.13 13.7 56.7 41 0.7 33.2
07:25 1022 30.18 851 25.13 13.8 56.9 40 0.7 33.2
07:30 1022 30.18 851 25.13 13.9 57.1 42 1.2 34.1
07:35 1022 30.18 851 25.13 14 57.2 41 1.2 34.2
07:40 1022 30.18 851 25.13 13.8 56.9 41 1 33.9
07:45 1022 30.18 851 25.13 13.7 56.6 42 1.1 33.9
07:50 1022 30.18 851 25.13 13.7 56.6 42 1.2 34.1
07:55 1022 30.18 851 25.13 13.8 56.9 42 1.2 34.2
08:00 1022 30.18 851 25.13 14.2 57.6 41 1.2 34.1
08:05 1022 30.18 851 25.13 14.5 58.2 42 1.8 35.2
08:10 1022 30.18 851 25.13 14.8 58.7 41 1.6 35
08:15 1022 30.18 851 25.13 14.9 58.9 42 2.3 36.2
08:20 1022 30.18 851 25.13 15.1 59.1 42 2.4 36.4
08:25 1022 30.18 851 25.13 15.3 59.6 41 2.2 36
08:30 1022 30.18 851 25.13 15.7 60.2 46 4.2 39.5
08:35 1022 30.18 851 25.13 16.1 61.1 38 1.8 35.3
08:40 1022 30.18 851 25.13 16.5 61.6 38 2.2 35.9
08:45 1022 30.18 851 25.13 16.8 62.3 36 1.7 35.1
08:50 1022 30.18 851 25.13 17.2 63 35 1.7 35
08:55 1022 30.18 852 25.16 17.6 63.7 34 1.6 35
09:00 1022 30.18 852 25.16 18 64.3 35 2.3 36.2
09:05 1022 30.18 852 25.16 18.4 65.2 35 2.9 37.2
09:10 1022 30.18 852 25.16 19 66.1 34 2.9 37.2
09:15 1022 30.18 852 25.16 19 66.3 34 2.8 37.1
09:20 1022 30.18 852 25.16 19.6 67.3 31 2.2 35.9
09:25 1022 30.18 852 25.16 19.9 67.8 31 2.2 36
09:30 1022 30.18 852 25.16 20.6 69.1 27 1.2 34.2
09:35 1022 30.18 852 25.16 21.5 70.6 30 3.3 37.9
09:40 1022 30.18 852 25.16 21.6 70.9 28 2.6 36.6
09:45 1022 30.18 852 25.16 21.6 70.9 28 2.6 36.7
09:50 1022 30.18 852 25.16 21.9 71.4 28 2.6 36.7
09:55 1023 30.21 852 25.16 21.3 70.3 28 2.5 36.5
10:00 1023 30.21 852 25.16 21.4 70.6 27 1.8 35.2
10:05 1023 30.21 852 25.16 22.5 72.5 27 2.5 36.6
10:10 1023 30.21 852 25.16 22.6 72.7 27 3.1 37.6
10:15 1023 30.21 852 25.16 22.5 72.4 28 3.1 37.5
10:20 1023 30.21 852 25.16 21.8 71.2 28 2.7 36.8
10:25 1023 30.21 852 25.16 21.9 71.5 29 3.5 38.3
10:30 1023 30.21 852 25.16 22.1 71.9 29 3.3 38
10:35 1023 30.21 852 25.16 22.5 72.5 29 3.6 38.4
10:40 1023 30.21 852 25.16 22.7 72.9 27 3.1 37.6
10:45 1023 30.21 852 25.16 22.7 72.9 28 3.6 38.6
10:50 1023 30.21 852 25.16 22.6 72.7 28 3.4 38
10:55 1023 30.21 852 25.16 22.8 73.1 29 4.1 39.4
11:00 1023 30.21 852 25.16 22.8 73 27 3.1 37.5
11:05 1023 30.21 852 25.16 22.9 73.3 27 3.3 38
11:10 1023 30.21 852 25.16 23.3 74 27 3.7 38.7
11:15 1023 30.21 852 25.16 23.1 73.5 28 3.9 39
11:20 1023 30.21 852 25.16 23.1 73.5 27 3.1 37.5
11:25 1023 30.21 852 25.16 23.2 73.7 26 2.6 36.6
11:30 1023 30.21 852 25.16 23.3 73.9 24 2 35.6
11:35 1023 30.21 852 25.16 23 73.4 26 2.7 36.8
11:40 1023 30.21 852 25.16 23.3 74 27 3.4 38.1
11:45 1023 30.21 852 25.16 23.5 74.3 27 3.7 38.7
11:50 1023 30.21 852 25.16 23.5 74.3 26 2.8 37.1
11:55 1023 30.21 852 25.16 23.7 74.7 26 3.5 38.2
12:00 1023 30.21 852 25.16 23.8 74.9 28 4.5 40.2
12:05 1023 30.21 852 25.16 24.2 75.5 27 4.2 39.5
12:10 1023 30.21 852 25.16 24 75.2 26 3.3 38
12:15 1023 30.21 852 25.16 24.1 75.3 26 3.7 38.6
12:20 1023 30.21 852 25.16 24 75.3 26 3.8 38.9
12:25 1023 30.21 852 25.16 24.5 76.1 24 3.1 37.5
12:30 1023 30.21 852 25.16 24.8 76.7 25 3.6 38.5
12:35 1023 30.21 852 25.16 24.8 76.7 25 3.6 38.5
12:40 1023 30.21 852 25.16 25.1 77.2 23 3.1 37.5
12:45 1023 30.21 852 25.16 25.5 77.8 23 3.1 37.6
12:50 1023 30.21 852 25.16 25.8 78.5 22 3 37.4
12:55 1022 30.18 852 25.16 25.5 78 22 2.7 36.8
13:00 1022 30.18 852 25.16 25.9 78.6 21 2.4 36.2
13:05 1022 30.18 852 25.16 26 78.9 23 3.3 37.9
13:10 1022 30.18 852 25.16 26.2 79.2 22 3.1 37.5
13:15 1022 30.18 851 25.13 26 78.8 22 2.9 37.2
13:20 1022 30.18 851 25.13 26.3 79.4 23 3.6 38.4
13:25 1022 30.18 851 25.13 26.8 80.3 22 3.7 38.6
13:30 1022 30.18 851 25.13 26.8 80.2 20 2.5 36.5
13:35 1022 30.18 851 25.13 26.7 80 21 2.8 37
13:40 1022 30.18 851 25.13 27.1 80.8 20 2.8 37
13:45 1022 30.18 851 25.13 27.1 80.8 21 3 37.4
13:50 1022 30.18 851 25.13 26.8 80.3 22 3.4 38.1
13:55 1022 30.18 851 25.13 26.8 80.3 21 3.2 37.8
14:00 1022 30.18 851 25.13 27 80.7 20 2.7 36.8
14:05 1022 30.18 851 25.13 27.3 81.1 19 1.8 35.2
14:10 1022 30.18 851 25.13 27.3 81.2 20 3 37.4
14:15 1022 30.18 851 25.13 27.9 82.2 19 2.6 36.7
14:20 1022 30.18 851 25.13 27.6 81.7 18 1.2 34.1
14:25 1022 30.18 851 25.13 27.1 80.7 18 1 33.8
14:30 1022 30.18 851 25.13 26.8 80.2 19 1.4 34.5
14:35 1022 30.18 851 25.13 27.5 81.6 17 0.3 32.5
14:40 1022 30.18 851 25.13 27.9 82.2 16 -0.2 31.7
14:45 1022 30.18 851 25.13 27.6 81.6 17 0.4 32.6
14:50 1022 30.18 851 25.13 27.8 82 16 0.1 32.2
14:55 1022 30.18 851 25.13 27.4 81.4 18 1.1 34
15:00 1022 30.18 851 25.13 27.5 81.5 18 1 33.9
15:05 1022 30.18 851 25.13 28.1 82.6 17 1.1 34.1
15:10 1022 30.18 851 25.13 27.9 82.2 16 -0.1 31.9
15:15 1022 30.18 851 25.13 27.5 81.5 17 0.3 32.6
15:20 1022 30.18 851 25.13 27.7 81.9 16 -0.1 31.8
15:25 1021 30.15 851 25.13 28.3 83 16 0.3 32.5
15:30 1021 30.15 851 25.13 29 84.3 15 0.2 32.4
15:35 1021 30.15 851 25.13 29.3 84.7 16 0.8 33.5
15:40 1021 30.15 851 25.13 29.4 84.9 15 0.7 33.2
15:45 1021 30.15 850 25.1 29.6 85.3 15 0.7 33.2
15:50 1021 30.15 850 25.1 29.5 85.1 15 0.7 33.2
15:55 1021 30.15 850 25.1 29 84.2 15 0 32
16:00 1021 30.15 850 25.1 29.2 84.6 15 0.3 32.5
16:05 1021 30.15 850 25.1 29.3 84.8 15 -0 32
16:10 1021 30.15 850 25.1 29.1 84.4 14 -0.5 31.1
16:15 1021 30.15 850 25.1 29.3 84.7 15 0.2 32.3
16:20 1021 30.15 850 25.1 29.6 85.3 15 0.2 32.4
16:25 1021 30.15 850 25.1 30 86 14 0.3 32.6
16:30 1021 30.15 850 25.1 29.8 85.7 14 -0.1 31.9
16:35 1021 30.15 850 25.1 29.6 85.3 14 -0.5 31.1
16:40 1021 30.15 850 25.1 29.7 85.5 14 -0.8 30.6
16:45 1021 30.15 850 25.1 29.9 85.8 13 -1 30.3
16:50 1021 30.15 850 25.1 29.8 85.7 15 1 33.9
16:55 1021 30.15 850 25.1 29.4 85 14 -1 30.2
17:00 1021 30.15 850 25.1 28.9 84.1 14 -0.8 30.5
17:05 1021 30.15 850 25.1 29.4 84.9 13 -1.6 29.2
17:10 1021 30.15 850 25.1 29.5 85.1 13 -1.1 30.1
17:15 1021 30.15 850 25.1 28.8 83.9 14 -1.4 29.5
17:20 1021 30.15 850 25.1 28.3 83 14 -1.6 29.2
17:25 1021 30.15 850 25.1 29 84.1 14 -1 30.3
17:30 1021 30.15 850 25.1 29 84.3 14 -0.7 30.7
17:35 1021 30.15 850 25.1 28.6 83.5 13 -2 28.5
17:40 1021 30.15 850 25.1 28.6 83.5 13 -2 28.4
17:45 1021 30.15 850 25.1 29.1 84.4 13 -1.5 29.3
17:50 1021 30.15 850 25.1 29.4 84.9 12 -2.3 27.9
17:55 1021 30.15 850 25.1 29.9 85.8 12 -2 28.4
18:00 1021 30.15 850 25.1 30.2 86.4 12 -1.5 29.3
18:05 1021 30.15 850 25.1 29.9 85.7 12 -2 28.5
18:10 1021 30.15 850 25.1 29.6 85.3 12 -2 28.5
18:15 1021 30.15 850 25.1 29 84.2 13 -2.1 28.2
18:20 1021 30.15 850 25.1 29.3 84.7 13 -2.2 28.1
18:25 1021 30.15 850 25.1 29.6 85.3 12 -2.3 27.9
18:30 1021 30.15 850 25.1 29.5 85.1 13 -1.3 29.6
18:35 1021 30.15 850 25.1 29.6 85.2 13 -1.3 29.6
18:40 1021 30.15 850 25.1 29.8 85.6 11 -3.2 26.2
18:45 1021 30.15 850 25.1 29.5 85.2 12 -2.6 27.3
18:50 1021 30.15 850 25.1 28.9 83.9 11 -3.7 25.3
18:55 1021 30.15 850 25.1 28.1 82.5 16 0.2 32.4
19:00 1021 30.15 850 25.1 27.1 80.7 20 2.2 35.9
19:05 1021 30.15 850 25.1 26.7 80 20 2.4 36.3
19:10 1021 30.15 850 25.1 26.4 79.5 21 2.4 36.4
19:15 1021 30.15 850 25.1 26.2 79.1 21 2.3 36.2
19:20 1021 30.15 850 25.1 26 78.7 21 2.5 36.5
19:25 1021 30.15 850 25.1 25.8 78.4 22 2.4 36.4
19:30 1021 30.15 850 25.1 25.6 78.1 22 2.6 36.6
19:35 1021 30.15 850 25.1 25.5 77.8 22 2.7 36.8
19:40 1021 30.15 850 25.1 25.3 77.5 23 2.9 37.1
19:45 1021 30.15 850 25.1 25.1 77.2 23 2.9 37.2
19:50 1021 30.15 850 25.1 24.9 76.9 23 2.9 37.2
19:55 1021 30.15 850 25.1 24.8 76.7 24 2.9 37.2
20:00 1021 30.15 850 25.1 24.7 76.4 24 3.2 37.7
20:05 1021 30.15 850 25.1 24.4 75.9 25 3.2 37.8
20:10 1021 30.15 850 25.1 24.2 75.6 25 3.3 37.9
20:15 1021 30.15 851 25.13 24 75.3 25 3.1 37.6
20:20 1021 30.15 851 25.13 23.9 75.1 25 3.1 37.5
20:25 1021 30.15 851 25.13 23.7 74.7 26 3 37.5
20:30 1022 30.18 851 25.13 23.6 74.4 26 3.2 37.7
20:35 1022 30.18 851 25.13 23.4 74 26 3.1 37.7
20:40 1022 30.18 851 25.13 23.2 73.7 27 3.3 37.9
20:45 1022 30.18 851 25.13 23 73.4 27 3.1 37.6
20:50 1022 30.18 851 25.13 22.9 73.2 27 3.1 37.6
20:55 1022 30.18 851 25.13 22.8 73.1 27 3.1 37.6
21:00 1022 30.18 851 25.13 22.6 72.7 28 3.2 37.8
21:05 1022 30.18 851 25.13 22.5 72.5 28 3.2 37.7
21:10 1022 30.18 851 25.13 22.4 72.4 28 3.2 37.8
21:15 1022 30.18 851 25.13 22.3 72.1 28 3.3 37.9
21:20 1022 30.18 852 25.16 22.1 71.8 29 3.3 37.9
21:25 1022 30.18 852 25.16 21.9 71.5 29 3.4 38.1
21:30 1023 30.21 852 25.16 21.7 71.1 29 3.3 38
21:35 1023 30.21 852 25.16 21.7 71 30 3.3 38
21:40 1023 30.21 852 25.16 21.6 70.9 30 3.4 38.1
21:45 1023 30.21 852 25.16 21.5 70.7 30 3.5 38.3
21:50 1023 30.21 852 25.16 21.4 70.6 30 3.5 38.3
21:55 1023 30.21 852 25.16 21.3 70.4 31 3.6 38.4
22:00 1023 30.21 852 25.16 21.2 70.1 31 3.6 38.6
22:05 1023 30.21 852 25.16 21.1 70 31 3.7 38.6
22:10 1023 30.21 852 25.16 21 69.7 32 3.8 38.8
22:15 1023 30.21 852 25.16 20.8 69.5 32 3.7 38.6
22:20 1023 30.21 852 25.16 20.8 69.5 32 3.7 38.7
22:25 1023 30.21 852 25.16 20.8 69.4 32 3.8 38.9
22:30 1023 30.21 852 25.16 20.6 69.1 32 3.7 38.7
22:35 1023 30.21 852 25.16 20.7 69.2 33 3.9 39
22:40 1023 30.21 852 25.16 20.6 69 33 3.8 38.9
22:45 1023 30.21 852 25.16 20.5 68.9 33 3.8 38.9
22:50 1023 30.21 852 25.16 20.5 68.8 33 3.9 38.9
22:55 1023 30.21 852 25.16 20.2 68.4 34 4 39.1
23:00 1023 30.21 852 25.16 20.2 68.4 33 3.8 38.8
23:05 1023 30.21 852 25.16 20.2 68.3 34 4 39.1
23:10 1023 30.21 852 25.16 20.1 68.1 34 3.9 39.1
23:15 1023 30.21 852 25.16 19.9 67.8 34 3.9 39
23:20 1023 30.21 852 25.16 19.8 67.7 35 3.9 39.1
23:25 1023 30.21 852 25.16 19.8 67.6 35 3.9 39.1
23:30 1023 30.21 852 25.16 19.7 67.5 35 4 39.2
23:35 1023 30.21 852 25.16 19.6 67.4 35 4 39.2
23:40 1023 30.21 852 25.16 19.6 67.2 35 3.9 39.1
23:45 1023 30.21 852 25.16 19.5 67 36 4 39.3
23:50 1023 30.21 852 25.16 19.4 66.9 36 4 39.2
23:55 1023 30.21 852 25.16 19.3 66.8 36 4.1 39.3
24:00 1023 30.21 852 25.16 19.3 66.7 36 4.2 39.5